Time;durP1;ratioP1;P1;durP2;ratioP2;P2;SDS_P1;SDS_P2;PMS_P1;PMS_P2;Temp;Humidity;BMP_temperature;BMP_pressure;BME280_temperature;BME280_humidity;BME280_pressure;Samples;Min_cycle;Max_cycle;Signal;HPM_P1;HPM_P2
2024/04/02 00:00:07;;;;;;;7.30;1.70;;;;;;;;;;1946685;74;21078;-54
2024/04/02 00:02:37;;;;;;;9.38;1.80;;;;;;;;;;1946522;74;21437;-55
2024/04/02 00:05:05;;;;;;;9.28;1.67;;;;;;;;;;1946529;74;21034;-55
2024/04/02 00:07:34;;;;;;;4.12;1.50;;;;;;;;;;1946520;74;21126;-54
2024/04/02 00:10:03;;;;;;;4.05;1.60;;;;;;;;;;1946647;74;20999;-54
2024/04/02 00:12:32;;;;;;;3.08;1.50;;;;;;;;;;1946689;74;21096;-52
2024/04/02 00:15:05;;;;;;;8.48;1.90;;;;;;;;;;1946604;74;20999;-52
2024/04/02 00:17:31;;;;;;;4.25;1.90;;;;;;;;;;1945926;74;21465;-53
2024/04/02 00:19:59;;;;;;;8.28;2.08;;;;;;;;;;1946482;74;21097;-52
2024/04/02 00:22:28;;;;;;;3.22;1.80;;;;;;;;;;1946632;74;21453;-54
2024/04/02 00:24:56;;;;;;;5.28;1.47;;;;;;;;;;1946529;74;21023;-52
2024/04/02 00:27:27;;;;;;;4.10;1.32;;;;;;;;;;1946460;74;21038;-54
2024/04/02 00:29:55;;;;;;;6.30;1.40;;;;;;;;;;1946599;74;21529;-54
2024/04/02 00:32:24;;;;;;;2.77;1.50;;;;;;;;;;1946542;74;21076;-54
2024/04/02 00:34:53;;;;;;;4.03;1.52;;;;;;;;;;1946528;74;21104;-53
2024/04/02 00:37:22;;;;;;;1.87;1.15;;;;;;;;;;1946548;74;20980;-53
2024/04/02 00:39:51;;;;;;;1.98;0.90;;;;;;;;;;1946514;74;21039;-50
2024/04/02 00:42:19;;;;;;;2.33;1.10;;;;;;;;;;1946538;74;21003;-53
2024/04/02 00:44:48;;;;;;;3.75;1.25;;;;;;;;;;1946493;74;21034;-54
2024/04/02 00:47:16;;;;;;;1.85;1.02;;;;;;;;;;1946552;74;21035;-50
2024/04/02 00:49:46;;;;;;;2.83;1.00;;;;;;;;;;1948334;74;21051;-54
2024/04/02 00:52:14;;;;;;;4.10;0.90;;;;;;;;;;1948535;73;21026;-53
2024/04/02 00:54:44;;;;;;;2.75;0.93;;;;;;;;;;1948510;74;21039;-51
2024/04/02 00:57:12;;;;;;;1.72;0.90;;;;;;;;;;1948514;74;21068;-50
2024/04/02 00:59:41;;;;;;;2.80;0.70;;;;;;;;;;1948505;73;21093;-54
2024/04/02 01:02:09;;;;;;;1.98;1.02;;;;;;;;;;1948550;74;21003;-54
2024/04/02 01:04:38;;;;;;;2.83;1.00;;;;;;;;;;1948529;74;20999;-51
2024/04/02 01:07:07;;;;;;;2.35;0.90;;;;;;;;;;1948494;74;21093;-50
2024/04/02 01:09:35;;;;;;;3.37;1.00;;;;;;;;;;1948519;74;21003;-52
2024/04/02 01:12:07;;;;;;;2.37;1.10;;;;;;;;;;1948537;74;21007;-53
2024/04/02 01:14:41;;;;;;;4.17;0.90;;;;;;;;;;1948765;73;21527;-53
2024/04/02 01:17:08;;;;;;;;;;;;;;;;;;1951523;74;21065;-50
2024/04/02 01:19:38;;;;;;;1.42;0.82;;;;;;;;;;1948686;74;20116;-50
2024/04/02 01:22:07;;;;;;;1.75;1.00;;;;;;;;;;1948456;74;21007;-50
2024/04/02 01:24:35;;;;;;;2.37;1.20;;;;;;;;;;1948436;74;21112;-54
2024/04/02 01:27:04;;;;;;;1.65;1.05;;;;;;;;;;1948495;74;21019;-53
2024/04/02 01:29:33;;;;;;;2.27;0.93;;;;;;;;;;1948447;74;21003;-52
2024/04/02 01:32:01;;;;;;;1.20;1.10;;;;;;;;;;1948548;74;21031;-53
2024/04/02 01:34:33;;;;;;;2.98;1.15;;;;;;;;;;1948492;74;21039;-50
2024/04/02 01:37:02;;;;;;;1.10;0.80;;;;;;;;;;1948515;74;21093;-54
2024/04/02 01:39:30;;;;;;;1.95;0.90;;;;;;;;;;1948446;73;21030;-50
2024/04/02 01:41:58;;;;;;;2.85;1.10;;;;;;;;;;1948535;74;21003;-54
2024/04/02 01:44:27;;;;;;;4.08;0.95;;;;;;;;;;1948419;74;21031;-53
2024/04/02 01:46:55;;;;;;;1.20;0.98;;;;;;;;;;1948544;74;21121;-53
2024/04/02 01:49:24;;;;;;;4.72;1.70;;;;;;;;;;1948320;74;21050;-53
2024/04/02 01:51:53;;;;;;;2.47;1.00;;;;;;;;;;1948571;74;21128;-54
2024/04/02 01:54:21;;;;;;;4.42;1.15;;;;;;;;;;1948458;73;21101;-52
2024/04/02 01:56:50;;;;;;;2.85;1.22;;;;;;;;;;1948472;74;21073;-54
2024/04/02 01:59:19;;;;;;;3.27;0.82;;;;;;;;;;1948473;74;21090;-55
2024/04/02 02:01:47;;;;;;;10.68;1.67;;;;;;;;;;1948446;74;21098;-53
2024/04/02 02:04:16;;;;;;;8.68;1.85;;;;;;;;;;1948533;74;21003;-54
2024/04/02 02:06:44;;;;;;;8.73;1.37;;;;;;;;;;1948489;74;21027;-53
2024/04/02 02:09:13;;;;;;;2.83;1.40;;;;;;;;;;1948558;74;21112;-53
2024/04/02 02:11:42;;;;;;;6.17;1.77;;;;;;;;;;1948598;74;21065;-52
2024/04/02 02:14:11;;;;;;;14.87;2.77;;;;;;;;;;1948424;73;21089;-54
2024/04/02 02:16:40;;;;;;;7.87;1.37;;;;;;;;;;1948492;74;21000;-53
2024/04/02 02:19:08;;;;;;;6.33;1.40;;;;;;;;;;1948502;74;21015;-52
2024/04/02 02:21:37;;;;;;;5.67;1.45;;;;;;;;;;1948599;74;21018;-52
2024/04/02 02:24:06;;;;;;;7.05;2.08;;;;;;;;;;1948500;74;21122;-53
2024/04/02 02:26:35;;;;;;;5.12;2.10;;;;;;;;;;1948480;74;21007;-53
2024/04/02 02:29:03;;;;;;;18.15;2.62;;;;;;;;;;1948404;74;21101;-53
2024/04/02 02:31:35;;;;;;;8.68;2.65;;;;;;;;;;1948470;74;21179;-54
2024/04/02 02:34:03;;;;;;;7.03;2.10;;;;;;;;;;1948351;74;21481;-54
2024/04/02 02:36:32;;;;;;;7.15;2.10;;;;;;;;;;1948498;74;21500;-55
2024/04/02 02:39:04;;;;;;;7.08;1.87;;;;;;;;;;1948577;74;21113;-54
2024/04/02 02:41:31;;;;;;;9.35;2.15;;;;;;;;;;1948349;73;21429;-53
2024/04/02 02:44:00;;;;;;;6.78;2.70;;;;;;;;;;1948409;73;21030;-55
2024/04/02 02:46:29;;;;;;;12.23;2.55;;;;;;;;;;1948438;74;21007;-53
2024/04/02 02:48:59;;;;;;;7.50;2.20;;;;;;;;;;1948031;73;21054;-54
2024/04/02 02:51:28;;;;;;;17.07;2.90;;;;;;;;;;1946525;74;21047;-53
2024/04/02 02:53:56;;;;;;;13.95;2.37;;;;;;;;;;1946425;74;21031;-55
2024/04/02 02:56:25;;;;;;;6.60;2.00;;;;;;;;;;1946548;74;20999;-53
2024/04/02 02:58:54;;;;;;;12.63;2.83;;;;;;;;;;1946540;74;21034;-53
2024/04/02 03:01:22;;;;;;;27.98;3.12;;;;;;;;;;1946511;74;21034;-53
2024/04/02 03:03:52;;;;;;;16.57;2.95;;;;;;;;;;1946378;74;21106;-54
2024/04/02 03:06:20;;;;;;;6.12;1.92;;;;;;;;;;1946462;74;21060;-54
2024/04/02 03:08:49;;;;;;;5.30;2.00;;;;;;;;;;1946401;74;21031;-53
2024/04/02 03:11:18;;;;;;;10.72;2.00;;;;;;;;;;1946560;74;20999;-55
2024/04/02 03:13:46;;;;;;;11.35;2.10;;;;;;;;;;1946451;74;21092;-54
2024/04/02 03:16:15;;;;;;;14.55;2.55;;;;;;;;;;1946458;74;21088;-54
2024/04/02 03:18:44;;;;;;;6.33;2.60;;;;;;;;;;1946458;74;21031;-54
2024/04/02 03:21:15;;;;;;;8.28;2.65;;;;;;;;;;1946452;74;21113;-53
2024/04/02 03:23:44;;;;;;;12.65;2.47;;;;;;;;;;1946410;74;21078;-53
2024/04/02 03:26:13;;;;;;;6.75;2.30;;;;;;;;;;1946582;74;21078;-54
2024/04/02 03:28:42;;;;;;;13.18;2.40;;;;;;;;;;1946376;74;21096;-54
2024/04/02 03:31:10;;;;;;;6.17;2.25;;;;;;;;;;1946478;74;21053;-53
2024/04/02 03:33:39;;;;;;;9.75;3.35;;;;;;;;;;1946499;74;21031;-54
2024/04/02 03:36:08;;;;;;;4.35;1.72;;;;;;;;;;1946585;74;21485;-53
2024/04/02 03:38:37;;;;;;;6.17;1.32;;;;;;;;;;1946646;74;21066;-54
2024/04/02 03:41:12;;;;;;;7.20;2.10;;;;;;;;;;1946593;74;21015;-54
2024/04/02 03:43:45;;;;;;;5.00;1.22;;;;;;;;;;1946515;73;21079;-53
2024/04/02 03:46:13;;;;;;;2.62;1.27;;;;;;;;;;1946601;74;21110;-53
2024/04/02 03:48:43;;;;;;;5.87;1.50;;;;;;;;;;1946525;74;21015;-51
2024/04/02 03:51:11;;;;;;;8.45;2.08;;;;;;;;;;1946488;73;21108;-52
2024/04/02 03:53:40;;;;;;;35.48;4.10;;;;;;;;;;1946534;74;21034;-54
2024/04/02 03:56:09;;;;;;;16.37;2.37;;;;;;;;;;1946538;74;21023;-54
2024/04/02 03:58:37;;;;;;;17.17;2.62;;;;;;;;;;1946507;74;21062;-53
2024/04/02 04:01:07;;;;;;;34.58;4.50;;;;;;;;;;1946711;74;21030;-53
2024/04/02 04:03:36;;;;;;;14.63;3.05;;;;;;;;;;1946689;74;21449;-52
2024/04/02 04:06:05;;;;;;;19.70;3.62;;;;;;;;;;1946671;74;20995;-52
2024/04/02 04:08:34;;;;;;;5.35;2.12;;;;;;;;;;1946610;74;21055;-55
2024/04/02 04:11:03;;;;;;;5.47;1.85;;;;;;;;;;1946654;74;21053;-52
2024/04/02 04:13:32;;;;;;;9.95;2.62;;;;;;;;;;1946544;74;21038;-53
2024/04/02 04:16:07;;;;;;;13.25;2.72;;;;;;;;;;1946528;74;21035;-55
2024/04/02 04:18:31;;;;;;;8.40;2.85;;;;;;;;;;1944170;74;21082;-53
2024/04/02 04:21:00;;;;;;;37.88;7.33;;;;;;;;;;1946564;74;21070;-53
2024/04/02 04:23:29;;;;;;;10.25;3.35;;;;;;;;;;1946502;74;21007;-53
2024/04/02 04:25:59;;;;;;;16.02;3.40;;;;;;;;;;1946495;74;21027;-53
2024/04/02 04:28:28;;;;;;;12.43;3.52;;;;;;;;;;1945352;74;21082;-52
2024/04/02 04:30:57;;;;;;;19.20;3.27;;;;;;;;;;1946493;74;20983;-53
2024/04/02 04:33:25;;;;;;;15.10;3.45;;;;;;;;;;1946478;74;20983;-54
2024/04/02 04:35:54;;;;;;;26.50;4.40;;;;;;;;;;1946462;74;21093;-54
2024/04/02 04:38:25;;;;;;;12.90;4.00;;;;;;;;;;1946579;74;21027;-53
2024/04/02 04:40:53;;;;;;;20.32;3.60;;;;;;;;;;1946523;74;21007;-51
2024/04/02 04:43:22;;;;;;;77.45;9.75;;;;;;;;;;1946490;74;21034;-51
2024/04/02 04:45:52;;;;;;;22.30;4.25;;;;;;;;;;1946496;74;21027;-53
2024/04/02 04:48:20;;;;;;;48.20;7.97;;;;;;;;;;1946457;74;20987;-53
2024/04/02 04:50:59;;;;;;;26.85;4.37;;;;;;;;;;1946469;74;21074;-54
2024/04/02 04:53:28;;;;;;;16.00;3.20;;;;;;;;;;1946490;74;21030;-53
2024/04/02 04:56:04;;;;;;;27.13;5.58;;;;;;;;;;1946504;74;21085;-53
2024/04/02 04:58:34;;;;;;;93.42;8.75;;;;;;;;;;1945811;74;21085;-53
2024/04/02 05:01:03;;;;;;;74.12;9.10;;;;;;;;;;1945432;74;21145;-51
2024/04/02 05:03:32;;;;;;;12.43;2.58;;;;;;;;;;1946421;74;21015;-55
2024/04/02 05:06:04;;;;;;;19.32;2.67;;;;;;;;;;1946338;74;21100;-54
2024/04/02 05:08:36;;;;;;;24.00;3.72;;;;;;;;;;1946438;74;21019;-53
2024/04/02 05:11:05;;;;;;;17.02;3.10;;;;;;;;;;1946480;74;20979;-53
2024/04/02 05:13:34;;;;;;;39.23;5.10;;;;;;;;;;1946431;74;21019;-51
2024/04/02 05:16:04;;;;;;;24.75;4.55;;;;;;;;;;1946429;74;21105;-53
2024/04/02 05:18:32;;;;;;;38.67;5.37;;;;;;;;;;1946480;74;21138;-50
2024/04/02 05:21:03;;;;;;;33.48;5.50;;;;;;;;;;1946391;74;21003;-51
2024/04/02 05:23:31;;;;;;;41.75;6.62;;;;;;;;;;1946408;74;21465;-51
2024/04/02 05:25:59;;;;;;;33.85;9.65;;;;;;;;;;1946329;74;21042;-52
2024/04/02 05:28:28;;;;;;;39.50;11.03;;;;;;;;;;1946317;74;21140;-52
2024/04/02 05:30:57;;;;;;;24.18;7.35;;;;;;;;;;1946570;74;21027;-52
2024/04/02 05:33:26;;;;;;;23.83;5.90;;;;;;;;;;1946439;74;21011;-51
2024/04/02 05:35:55;;;;;;;19.17;4.20;;;;;;;;;;1946510;74;21027;-51
2024/04/02 05:38:23;;;;;;;15.18;3.70;;;;;;;;;;1946473;74;21000;-52
2024/04/02 05:40:52;;;;;;;40.92;6.05;;;;;;;;;;1946437;74;21035;-54
2024/04/02 05:43:21;;;;;;;27.05;4.12;;;;;;;;;;1946473;73;21076;-52
2024/04/02 05:45:50;;;;;;;30.65;4.40;;;;;;;;;;1946360;74;21023;-52
2024/04/02 05:48:18;;;;;;;16.27;3.83;;;;;;;;;;1946425;74;21058;-53
2024/04/02 05:50:54;;;;;;;18.67;4.67;;;;;;;;;;1946366;74;21196;-51
2024/04/02 05:53:22;;;;;;;16.37;3.75;;;;;;;;;;1946388;74;21019;-51
2024/04/02 05:55:51;;;;;;;16.17;4.15;;;;;;;;;;1946282;74;21031;-52
2024/04/02 05:58:19;;;;;;;16.25;4.60;;;;;;;;;;1946333;74;21015;-50
2024/04/02 06:00:48;;;;;;;26.12;6.42;;;;;;;;;;1946452;74;21098;-50
2024/04/02 06:03:17;;;;;;;18.65;4.55;;;;;;;;;;1946397;74;21035;-51
2024/04/02 06:05:45;;;;;;;19.60;6.67;;;;;;;;;;1946360;74;21003;-53
2024/04/02 06:08:15;;;;;;;18.92;6.42;;;;;;;;;;1946309;74;21010;-52
2024/04/02 06:10:43;;;;;;;20.23;8.10;;;;;;;;;;1946283;73;21015;-53
2024/04/02 06:52:19;;;;;;;14.75;3.00;;;20.40;47.20;;;;;;1925646;74;28064;-46
2024/04/02 07:08:16;;;;;;;16.15;2.20;;;21.10;45.90;;;;;;1959004;73;22082;-46
2024/04/02 07:10:51;;;;;;;14.70;1.92;;;21.90;44.10;;;;;;1918535;74;21089;-46
2024/04/02 07:13:20;;;;;;;10.55;2.02;;;21.80;44.40;;;;;;1917483;74;21533;-45
2024/04/02 07:15:49;;;;;;;10.13;2.15;;;21.80;45.00;;;;;;1918521;75;21069;-45
2024/04/02 07:18:18;;;;;;;10.95;1.32;;;21.80;44.80;;;;;;1918300;75;21038;-46
2024/04/02 07:21:01;;;;;;;5.50;1.80;;;21.80;44.90;;;;;;1918309;75;20995;-45
2024/04/02 07:23:30;;;;;;;9.58;1.85;;;21.90;44.90;;;;;;1918457;75;20995;-46
2024/04/02 07:26:00;;;;;;;5.97;1.25;;;21.90;45.00;;;;;;1881718;76;21044;-45
2024/04/02 07:28:30;;;;;;;4.72;1.30;;;22.00;44.90;;;;;;1865805;77;21122;-45
2024/04/02 07:31:00;;;;;;;22.70;3.60;;;22.00;44.60;;;;;;1865835;77;21015;-46
2024/04/02 07:33:30;;;;;;;18.20;1.85;;;22.10;44.70;;;;;;1865836;77;21117;-45
2024/04/02 07:35:59;;;;;;;7.83;1.65;;;22.10;44.20;;;;;;1865804;77;21023;-45
2024/04/02 07:38:29;;;;;;;6.03;1.50;;;22.20;43.90;;;;;;1865879;77;21028;-47
2024/04/02 07:40:59;;;;;;;7.90;1.32;;;22.20;43.80;;;;;;1865841;77;21078;-49
2024/04/02 07:43:27;;;;;;;18.02;2.45;;;22.30;43.70;;;;;;1865812;77;21088;-47
2024/04/02 07:45:56;;;;;;;5.40;1.50;;;22.30;43.60;;;;;;1865896;77;21024;-45
2024/04/02 07:48:26;;;;;;;10.53;2.40;;;22.40;43.50;;;;;;1865987;77;21031;-46
2024/04/02 07:50:56;;;;;;;4.45;1.55;;;22.40;43.00;;;;;;1866084;77;21019;-46
2024/04/02 07:53:26;;;;;;;8.43;1.45;;;22.50;42.70;;;;;;1866001;77;21480;-46
2024/04/02 07:55:55;;;;;;;4.72;2.02;;;22.50;42.20;;;;;;1865862;77;21023;-45
2024/04/02 07:58:24;;;;;;;9.35;1.60;;;22.60;42.50;;;;;;1865878;77;21059;-46
2024/04/02 08:00:53;;;;;;;18.48;2.20;;;22.70;42.40;;;;;;1865834;77;21063;-45
2024/04/02 08:03:22;;;;;;;4.42;1.50;;;22.70;42.40;;;;;;1865844;77;21031;-45
2024/04/02 08:05:58;;;;;;;6.30;1.35;;;22.80;42.00;;;;;;1865848;77;21056;-47
2024/04/02 08:08:27;;;;;;;6.97;1.35;;;22.80;41.50;;;;;;1856192;77;21099;-45
2024/04/02 08:10:56;;;;;;;10.95;2.10;;;22.90;41.40;;;;;;1906019;75;21499;-45
2024/04/02 08:13:26;;;;;;;7.37;1.37;;;22.90;41.40;;;;;;1906010;74;21071;-47
2024/04/02 08:15:56;;;;;;;7.33;1.57;;;23.00;41.30;;;;;;1906036;74;21019;-46
2024/04/02 08:18:25;;;;;;;10.88;2.70;;;23.00;41.60;;;;;;1869231;77;20986;-45
2024/04/02 08:20:54;;;;;;;12.90;1.82;;;23.10;40.60;;;;;;1905230;75;21003;-45
2024/04/02 08:23:23;;;;;;;7.53;1.72;;;23.20;40.80;;;;;;1905421;75;21135;-45
2024/04/02 08:25:53;;;;;;;4.53;1.20;;;23.20;40.70;;;;;;1868910;77;21019;-46
2024/04/02 08:28:22;;;;;;;11.97;1.65;;;23.30;40.40;;;;;;1905326;75;20984;-45
2024/04/02 08:30:51;;;;;;;35.50;3.70;;;23.30;40.20;;;;;;1905247;75;21505;-45
2024/04/02 08:33:21;;;;;;;12.15;2.20;;;23.40;40.00;;;;;;1905223;75;21109;-46
2024/04/02 08:35:50;;;;;;;28.50;3.77;;;;;;;;;;1905326;74;21018;-46
2024/04/02 08:38:19;;;;;;;7.87;1.50;;;;;;;;;;1905193;75;21012;-45
2024/04/02 08:40:50;;;;;;;5.80;2.22;;;;;;;;;;1905325;75;21070;-47
2024/04/02 08:43:18;;;;;;;2.80;1.30;;;;;;;;;;1905291;75;21003;-48
2024/04/02 08:45:47;;;;;;;89.10;7.47;;;;;;;;;;1905361;75;21063;-46
2024/04/02 08:48:16;;;;;;;11.33;1.80;;;;;;;;;;1905239;75;21098;-46
2024/04/02 08:50:45;;;;;;;8.40;1.75;;;;;;;;;;1905265;75;21085;-46
2024/04/02 08:53:14;;;;;;;11.38;2.85;;;;;;;;;;1905336;75;21088;-46
2024/04/02 08:55:44;;;;;;;5.67;1.50;;;;;;;;;;1905379;75;21027;-48
2024/04/02 08:58:13;;;;;;;7.12;1.27;;;;;;;;;;1905262;75;21062;-46
2024/04/02 09:00:42;;;;;;;8.88;1.77;;;;;;;;;;1905190;75;20999;-46
2024/04/02 09:03:16;;;;;;;10.60;2.37;;;;;;;;;;1905311;75;21043;-47
2024/04/02 09:05:41;;;;;;;8.08;2.17;;;;;;;;;;1903610;74;21448;-47
2024/04/02 09:08:12;;;;;;;15.75;2.12;;;;;;;;;;1914194;74;21108;-46
2024/04/02 09:10:42;;;;;;;7.67;1.55;;;;;;;;;;1924774;74;21526;-47
2024/04/02 09:13:11;;;;;;;5.85;1.30;;;;;;;;;;1924630;74;21081;-45
2024/04/02 09:15:40;;;;;;;9.28;1.60;;;;;;;;;;1924766;74;20998;-46
2024/04/02 09:18:09;;;;;;;6.97;1.47;;;;;;;;;;1924598;74;21023;-49
2024/04/02 09:20:37;;;;;;;5.92;1.75;;;;;;;;;;1924619;74;21187;-47
2024/04/02 09:23:06;;;;;;;4.20;1.30;;;;;;;;;;1924666;74;20995;-47
2024/04/02 09:25:35;;;;;;;3.62;1.12;;;;;;;;;;1924605;74;21027;-46
2024/04/02 09:28:04;;;;;;;8.40;1.90;;;;;;;;;;1924791;74;21019;-46
2024/04/02 09:30:33;;;;;;;5.40;1.57;;;;;;;;;;1924584;74;21073;-46
2024/04/02 09:33:03;;;;;;;4.97;1.65;;;;;;;;;;1924644;74;21085;-46
2024/04/02 09:35:49;;;;;;;10.43;2.25;;;;;;;;;;1924692;74;21039;-46
2024/04/02 09:38:19;;;;;;;8.90;1.35;;;;;;;;;;1924600;74;21113;-47
2024/04/02 09:40:47;;;;;;;21.15;3.52;;;;;;;;;;1924607;74;21131;-46
2024/04/02 09:43:17;;;;;;;8.40;2.35;;;;;;;;;;1924625;74;21015;-46
2024/04/02 09:45:46;;;;;;;4.47;2.87;;;;;;;;;;1924596;74;21078;-48
2024/04/02 09:48:15;;;;;;;44.38;4.28;;;;;;;;;;1924619;74;21011;-48
2024/04/02 09:50:44;;;;;;;7.05;1.85;;;;;;;;;;1924691;74;21069;-46
2024/04/02 09:53:13;;;;;;;9.23;1.50;;;;;;;;;;1924771;74;21023;-46
2024/04/02 09:55:41;;;;;;;6.05;1.40;;;;;;;;;;1924648;74;21100;-46
2024/04/02 09:58:12;;;;;;;4.85;1.30;;;;;;;;;;1924631;74;21034;-47
2024/04/02 10:00:43;;;;;;;4.75;1.95;;;;;;;;;;1924804;74;21011;-47
2024/04/02 10:03:12;;;;;;;10.38;2.25;;;;;;;;;;1924602;74;21011;-46
2024/04/02 10:05:40;;;;;;;17.75;3.80;;;;;;;;;;1924766;74;21092;-46
2024/04/02 10:08:09;;;;;;;9.08;2.12;;;;;;;;;;1924627;74;21181;-46
2024/04/02 10:10:39;;;;;;;26.62;3.45;;;;;;;;;;1924891;74;21140;-45
2024/04/02 10:13:08;;;;;;;18.85;5.58;;;;;;;;;;1924660;74;21077;-45
2024/04/02 10:15:36;;;;;;;10.68;2.77;;;;;;;;;;1924617;74;21072;-46
2024/04/02 10:18:05;;;;;;;12.88;3.80;;;;;;;;;;1924585;74;21027;-48
2024/04/02 10:20:34;;;;;;;10.30;4.22;;;;;;;;;;1924765;74;21174;-46
2024/04/02 10:23:03;;;;;;;16.50;2.60;;;;;;;;;;1924754;74;21015;-46
2024/04/02 10:25:32;;;;;;;12.53;2.30;;;;;;;;;;1924599;74;21084;-46
2024/04/02 10:28:03;;;;;;;14.78;2.70;;;;;;;;;;1924645;74;21081;-47
2024/04/02 10:30:33;;;;;;;12.30;2.72;;;;;;;;;;1924656;74;21522;-46
2024/04/02 10:33:01;;;;;;;10.05;1.72;;;;;;;;;;1924640;74;21080;-47
2024/04/02 10:35:30;;;;;;;4.67;2.08;;;;;;;;;;1924707;74;21039;-46
2024/04/02 10:37:59;;;;;;;5.10;1.60;;;;;;;;;;1924603;74;21014;-46
2024/04/02 10:40:31;;;;;;;7.62;1.80;;;;;;;;;;1924592;74;21054;-48
2024/04/02 10:42:59;;;;;;;5.15;1.22;;;;;;;;;;1924603;74;21444;-46
2024/04/02 10:45:28;;;;;;;5.37;1.65;;;;;;;;;;1924717;74;21065;-45
2024/04/02 10:47:57;;;;;;;4.30;1.55;;;;;;;;;;1924698;74;21030;-46
2024/04/02 10:50:26;;;;;;;8.98;2.22;;;;;;;;;;1924824;74;21094;-46
2024/04/02 10:52:54;;;;;;;8.48;1.72;;;;;;;;;;1924814;74;21023;-47
2024/04/02 10:55:24;;;;;;;11.75;2.33;;;;;;;;;;1924670;74;21096;-46
2024/04/02 10:57:52;;;;;;;14.33;2.40;;;;;;;;;;1924755;74;21072;-46
2024/04/02 11:00:21;;;;;;;12.07;1.87;;;;;;;;;;1924799;74;21023;-48
2024/04/02 11:02:50;;;;;;;6.92;1.57;;;;;;;;;;1924716;74;21145;-46
2024/04/02 11:05:18;;;;;;;10.93;1.98;;;;;;;;;;1924686;74;21094;-46
2024/04/02 11:07:48;;;;;;;8.23;1.55;;;;;;;;;;1924641;74;21007;-46
2024/04/02 11:10:17;;;;;;;8.15;1.87;;;;;;;;;;1924801;74;21500;-46
2024/04/02 11:12:46;;;;;;;8.63;1.50;;;;;;;;;;1924808;74;21152;-46
2024/04/02 11:15:15;;;;;;;3.00;1.30;;;;;;;;;;1924646;74;21030;-46
2024/04/02 11:17:44;;;;;;;15.30;3.75;;;;;;;;;;1924602;74;21068;-46
2024/04/02 11:20:13;;;;;;;4.28;2.00;;;;;;;;;;1924489;74;21007;-48
2024/04/02 11:25:28;;;;;;;5.53;1.50;;;;;;;;;;1924588;74;21073;-46
2024/04/02 11:28:06;;;;;;;9.45;1.62;;;;;;;;;;1924530;74;21031;-46
2024/04/02 11:30:34;;;;;;;6.20;1.60;;;;;;;;;;1924531;74;21031;-46
2024/04/02 11:33:03;;;;;;;5.00;1.40;;;;;;;;;;1924593;74;21152;-47
2024/04/02 11:35:31;;;;;;;9.03;2.20;;;;;;;;;;1924503;74;21191;-47
2024/04/02 11:38:01;;;;;;;8.65;2.08;;;;;;;;;;1924489;74;21460;-46
2024/04/02 11:40:29;;;;;;;2.80;1.40;;;;;;;;;;1924635;74;21027;-43
2024/04/02 11:42:58;;;;;;;2.10;1.07;;;;;;;;;;1924690;74;21070;-44
2024/04/02 11:45:27;;;;;;;4.12;1.35;;;;;;;;;;1924641;74;21026;-44
2024/04/02 11:47:55;;;;;;;11.43;2.05;;;;;;;;;;1924508;74;21019;-46
2024/04/02 11:50:24;;;;;;;4.80;1.30;;;;;;;;;;1924626;74;21076;-46
2024/04/02 11:52:52;;;;;;;3.67;1.25;;;;;;;;;;1924681;74;21301;-46
2024/04/02 11:55:21;;;;;;;8.23;2.05;;;;;;;;;;1924717;74;21030;-46
2024/04/02 12:00:37;;;;;;;3.90;1.30;;;;;;;;;;1924320;74;21034;-45
2024/04/02 12:03:06;;;;;;;11.20;1.92;;;;;;;;;;1924660;74;21042;-45
2024/04/02 12:05:36;;;;;;;6.17;1.85;;;;;;;;;;1924652;74;20991;-46
2024/04/02 12:08:05;;;;;;;7.40;2.55;;;;;;;;;;1924622;74;21515;-46
2024/04/02 12:10:33;;;;;;;6.87;1.22;;;;;;;;;;1908656;74;21051;-46
2024/04/02 12:13:03;;;;;;;7.45;2.25;;;;;;;;;;1900331;75;21131;-46
2024/04/02 12:15:32;;;;;;;6.20;1.77;;;;;;;;;;1889333;75;21063;-46
2024/04/02 12:18:01;;;;;;;3.00;1.30;;;;;;;;;;1890361;75;21107;-47
2024/04/02 12:20:29;;;;;;;4.20;1.62;;;;;;;;;;1888147;75;21025;-48
2024/04/02 12:22:58;;;;;;;4.58;1.62;;;;;;;;;;1887930;74;21054;-45
2024/04/02 12:25:27;;;;;;;6.47;1.45;;;;;;;;;;1887363;75;21091;-46
2024/04/02 12:27:56;;;;;;;6.40;1.70;;;;;;;;;;1888417;75;21020;-48
2024/04/02 12:30:24;;;;;;;6.60;1.35;;;;;;;;;;1890446;75;21081;-46
2024/04/02 12:32:53;;;;;;;17.05;2.40;;;;;;;;;;1884795;75;20987;-46
2024/04/02 12:35:21;;;;;;;8.43;2.10;;;;;;;;;;1886213;75;21049;-47
2024/04/02 12:37:51;;;;;;;6.08;2.12;;;;;;;;;;1888672;75;20975;-47
2024/04/02 12:40:20;;;;;;;10.32;1.80;;;;;;;;;;1890484;75;21120;-46
2024/04/02 12:42:48;;;;;;;6.97;1.60;;;;;;;;;;1888389;75;21074;-46
2024/04/02 12:45:17;;;;;;;7.10;1.47;;;;;;;;;;1889003;75;21093;-46
2024/04/02 12:47:45;;;;;;;9.28;2.02;;;;;;;;;;1887081;75;21032;-45
2024/04/02 12:50:14;;;;;;;5.33;1.90;;;;;;;;;;1891586;75;21461;-47
2024/04/02 12:52:43;;;;;;;7.37;2.55;;;;;;;;;;1887297;75;21020;-45
2024/04/02 12:55:12;;;;;;;24.37;4.12;;;;;;;;;;1887402;75;21130;-47
2024/04/02 12:57:40;;;;;;;12.30;1.85;;;;;;;;;;1878761;75;21036;-46
2024/04/02 13:00:09;;;;;;;7.37;1.92;;;;;;;;;;1882281;75;21025;-46
2024/04/02 13:02:38;;;;;;;3.35;1.65;;;;;;;;;;1878763;75;21041;-48
2024/04/02 13:05:07;;;;;;;16.12;4.78;;;;;;;;;;1879278;75;21000;-48
2024/04/02 13:07:40;;;;;;;3.42;1.40;;;;;;;;;;1896817;75;21004;-47
2024/04/02 13:10:06;;;;;;;15.70;2.45;;;;;;;;;;1898137;74;21489;-47
2024/04/02 13:12:35;;;;;;;4.95;2.17;;;;;;;;;;1893520;75;21004;-47
2024/04/02 13:15:04;;;;;;;7.28;1.90;;;;;;;;;;1888134;75;21015;-47
2024/04/02 13:17:33;;;;;;;7.85;2.00;;;;;;;;;;1890493;75;21089;-47
2024/04/02 13:20:01;;;;;;;7.17;2.72;;;;;;;;;;1889024;75;21019;-45
2024/04/02 13:22:31;;;;;;;7.10;2.40;;;;;;;;;;1887350;75;21105;-46
2024/04/02 13:24:59;;;;;;;5.20;2.35;;;;;;;;;;1889204;75;21087;-47
2024/04/02 13:27:28;;;;;;;4.65;1.80;;;;;;;;;;1890393;75;21165;-47
2024/04/02 13:29:57;;;;;;;7.95;1.95;;;;;;;;;;1888109;75;21003;-47
2024/04/02 13:32:26;;;;;;;9.08;2.17;;;;;;;;;;1887787;75;21019;-47
2024/04/02 13:34:54;;;;;;;9.05;2.17;;;;;;;;;;1890542;75;20999;-46
2024/04/02 13:37:23;;;;;;;5.78;1.32;;;;;;;;;;1889314;75;21035;-46
2024/04/02 13:39:51;;;;;;;21.90;2.70;;;;;;;;;;1887262;75;21058;-46
2024/04/02 13:42:20;;;;;;;20.92;2.45;;;;;;;;;;1888983;75;21097;-47
2024/04/02 13:44:49;;;;;;;8.98;1.77;;;;;;;;;;1886242;75;21147;-47
2024/04/02 13:47:18;;;;;;;4.50;2.12;;;;;;;;;;1904336;75;21074;-46
2024/04/02 13:49:47;;;;;;;9.00;2.15;;;;;;;;;;1903492;75;21039;-49
2024/04/02 13:52:15;;;;;;;5.60;1.55;;;;;;;;;;1904715;75;21035;-47
2024/04/02 13:54:48;;;;;;;4.00;2.15;;;;;;;;;;1904753;75;21224;-49
2024/04/02 13:57:17;;;;;;;5.65;2.00;;;;;;;;;;1904688;75;21015;-47
2024/04/02 13:59:45;;;;;;;5.62;1.70;;;;;;;;;;1904979;75;21144;-49
2024/04/02 14:02:14;;;;;;;4.28;1.42;;;;;;;;;;1905130;75;21020;-47
2024/04/02 14:04:46;;;;;;;10.00;1.75;;;;;;;;;;1905184;75;21027;-48
2024/04/02 14:07:14;;;;;;;4.25;2.17;;;;;;;;;;1905268;75;21023;-48
2024/04/02 14:09:43;;;;;;;3.17;1.40;;;;;;;;;;1906100;74;21011;-46
2024/04/02 14:12:12;;;;;;;8.18;2.02;;;;;;;;;;1924734;74;21073;-47
2024/04/02 14:14:40;;;;;;;5.08;2.17;;;;;;;;;;1924602;74;21093;-47
2024/04/02 14:17:09;;;;;;;6.58;1.62;;;;;;;;;;1924656;74;21042;-49
2024/04/02 14:19:38;;;;;;;9.90;2.45;;;;;;;;;;1924675;74;21076;-47
2024/04/02 14:22:07;;;;;;;5.87;1.72;;;;;;;;;;1924599;74;21023;-48
2024/04/02 14:24:35;;;;;;;15.93;2.50;;;;;;;;;;1924674;74;21026;-49
2024/04/02 14:27:04;;;;;;;5.12;1.77;;;;;;;;;;1924676;74;21109;-46
2024/04/02 14:29:33;;;;;;;4.05;2.10;;;;;;;;;;1924547;74;21088;-46
2024/04/02 14:32:01;;;;;;;9.63;1.82;;;;;;;;;;1924592;74;21002;-46
2024/04/02 14:34:30;;;;;;;4.70;2.70;;;;;;;;;;1924581;74;21027;-47
2024/04/02 14:36:58;;;;;;;6.70;1.90;;;;;;;;;;1924710;74;21002;-47
2024/04/02 14:39:27;;;;;;;12.95;2.85;;;;;;;;;;1924542;74;21125;-49
2024/04/02 14:41:56;;;;;;;11.55;3.12;;;;;;;;;;1924719;74;21096;-47
2024/04/02 14:44:24;;;;;;;19.27;3.67;;;;;;;;;;1924633;74;21015;-46
2024/04/02 14:46:53;;;;;;;9.53;2.87;;;;;;;;;;1924625;74;21006;-50
2024/04/02 14:49:21;;;;;;;11.43;3.10;;;;;;;;;;1924564;74;21046;-46
2024/04/02 14:51:50;;;;;;;9.50;2.92;;;;;;;;;;1924587;74;21124;-46
2024/04/02 14:54:18;;;;;;;11.55;2.58;;;;;;;;;;1924698;74;21085;-48
2024/04/02 14:56:47;;;;;;;7.53;2.20;;;;;;;;;;1924657;74;21053;-47
2024/04/02 14:59:16;;;;;;;8.48;3.00;;;;;;;;;;1924589;74;21047;-47
2024/04/02 15:01:45;;;;;;;7.92;2.70;;;;;;;;;;1924609;74;21035;-47
2024/04/02 15:04:13;;;;;;;7.58;2.85;;;;;;;;;;1924720;74;21100;-47
2024/04/02 15:06:43;;;;;;;7.30;3.02;;;;;;;;;;1924621;74;21031;-46
2024/04/02 15:09:12;;;;;;;17.70;3.40;;;;;;;;;;1924104;74;21076;-46
2024/04/02 15:11:41;;;;;;;16.25;5.37;;;;;;;;;;1912103;74;21055;-47
2024/04/02 15:14:10;;;;;;;14.60;4.53;;;;;;;;;;1905367;75;21027;-47
2024/04/02 15:16:38;;;;;;;28.87;8.10;;;;;;;;;;1905125;75;21481;-47
2024/04/02 15:19:07;;;;;;;21.73;8.15;;;;;;;;;;1905166;75;21028;-47
2024/04/02 15:21:37;;;;;;;19.95;6.53;;;;;;;;;;1905225;75;21012;-49
2024/04/02 15:24:06;;;;;;;14.90;6.78;;;;;;;;;;1905134;75;21002;-47
2024/04/02 15:26:34;;;;;;;17.95;7.53;;;;;;;;;;1905237;75;20999;-48
2024/04/02 15:29:03;;;;;;;23.62;6.12;;;;;;;;;;1905170;75;21069;-50
2024/04/02 15:31:32;;;;;;;12.85;5.10;;;;;;;;;;1905315;75;21111;-48
2024/04/02 15:34:01;;;;;;;27.27;5.55;;;;;;;;;;1905403;75;21008;-47